Time;durP1;ratioP1;P1;durP2;ratioP2;P2;SDS_P1;SDS_P2;PMS_P1;PMS_P2;Temp;Humidity;BMP_temperature;BMP_pressure;BME280_temperature;BME280_humidity;BME280_pressure;Samples;Min_cycle;Max_cycle;Signal;HPM_P1;HPM_P2
2021/06/21 11:46:36;;;;;;;;;;;;;;;;;;5195267;27;11185;-47
2021/06/21 11:49:01;;;;;;;;;;;;;;;;;;5197052;27;11993;-49
2021/06/21 11:51:27;;;;;;;;;;;;;;;;;;5196774;27;11991;-58
2021/06/21 11:53:53;;;;;;;;;;;;;;;;;;5196956;27;12589;-62
2021/06/21 11:56:18;;;;;;;;;;;;;;;;;;5193261;27;12049;-60
2021/06/21 11:58:47;;;;;;;;;;;;;;;;;;5195743;27;11349;-65
2021/06/21 12:01:13;;;;;;;;;;;;;;;;;;5196577;27;11360;-63
2021/06/21 12:03:39;;;;;;;;;;;;;;;;;;5195546;27;12702;-59
2021/06/21 12:06:05;;;;;;;;;;;;;;;;;;5196136;27;11468;-54
2021/06/21 12:08:30;;;;;;;;;;;;;;;;;;5196297;27;11141;-52
2021/06/21 12:12:26;;;;;;;;;;;;;;;;;;5090971;28;11905;-49
2021/06/21 12:14:52;;;;;;;;;;;;;;;;;;5089211;28;11189;-53
2021/06/21 12:17:18;;;;;;;;;;;;;;;;;;5093414;28;11503;-54
2021/06/21 12:19:44;;;;;;;;;;;;;;;;;;5092694;28;12567;-54
2021/06/21 12:22:09;;;;;;;;;;;;;;;;;;5092993;28;11998;-50
2021/06/21 12:24:34;;;;;;;;;;;;;;;;;;5092783;28;11883;-54
2021/06/21 12:27:00;;;;;;;;;;;;;;;;;;5092798;28;11193;-54
2021/06/21 12:29:26;;;;;;;;;;;;;;;;;;5092716;28;12615;-52
2021/06/21 12:31:52;;;;;;;;;;;;;;;;;;5090317;28;12001;-55
2021/06/21 12:34:18;;;;;;;;;;;;;;;;;;5088199;28;12063;-56
2021/06/21 12:36:44;;;;;;;;;;;;;;;;;;5091707;28;12104;-52
2021/06/21 12:39:09;;;;;;;;;;;;;;;;;;5092112;28;11595;-55
2021/06/21 12:41:35;;;;;;;;;;;;;;;;;;5092783;28;11121;-56
2021/06/21 12:44:01;;;;;;;;;;;;;;;;;;5092844;28;11676;-57
2021/06/21 12:46:27;;;;;;;;;;;;;;;;;;5091353;28;12237;-55
2021/06/21 12:48:53;;;;;;;;;;;;;;;;;;5092468;28;11709;-58
2021/06/21 12:51:20;;;;;;;;;;;;;;;;;;5092718;28;11523;-52
2021/06/21 12:53:45;;;;;;;;;;;;;;;;;;5092961;28;11162;-54
2021/06/21 12:56:11;;;;;;;;;;;;;;;;;;5092065;28;12059;-48
2021/06/21 12:58:36;;;;;;;;;;;;;;;;;;5088747;28;11559;-54
2021/06/21 13:01:02;;;;;;;;;;;;;;;;;;5090043;28;12304;-53
2021/06/21 13:03:28;;;;;;;;;;;;;;;;;;5091746;28;12024;-50
2021/06/21 13:05:55;;;;;;;;;;;;;;;;;;5091249;28;11400;-53
2021/06/21 13:08:21;;;;;;;;;;;;;;;;;;5086355;28;11664;-54
2021/06/21 13:10:48;;;;;;;;;;;;;;;;;;5070334;28;12245;-52
2021/06/21 13:13:13;;;;;;;;;;;;;;;;;;5070622;28;12111;-52
2021/06/21 13:15:39;;;;;;;;;;;;;;;;;;5070318;28;11298;-51
2021/06/21 13:18:04;;;;;;;;;;;;;;;;;;5064169;28;11784;-52
2021/06/21 13:20:30;;;;;;;;;;;;;;;;;;5069088;28;12172;-54
2021/06/21 13:22:56;;;;;;;;;;;;;;;;;;5095624;28;11260;-57
2021/06/21 13:25:22;;;;;;;;;;;;;;;;;;5058506;28;11240;-60
2021/06/21 13:27:47;;;;;;;;;;;;;;;;;;5058428;28;11955;-58
2021/06/21 13:36:13;;;;;;;;;;;;;;;;;;5152528;27;12011;-55
2021/06/21 13:38:39;;;;;;;;;;;;;;;;;;5139230;27;11266;-56
2021/06/21 13:41:05;;;;;;;;;;;;;;;;;;5156350;27;11315;-56
2021/06/21 13:43:30;;;;;;;;;;;;;;;;;;5155214;27;11576;-56
2021/06/21 13:45:57;;;;;;;;;;;;;;;;;;5156987;27;12003;-57
2021/06/21 13:48:23;;;;;;;;;;;;;;;;;;5154970;27;11937;-58
2021/06/21 13:50:50;;;;;;;;;;;;;;;;;;5155299;27;11334;-57
2021/06/21 13:53:15;;;;;;;;;;;;;;;;;;5155421;27;11946;-57
2021/06/21 13:55:41;;;;;;;;;;;;;;;;;;5156441;27;12055;-58
2021/06/21 13:58:07;;;;;;;;;;;;;;;;;;5153186;27;12143;-58
2021/06/21 14:00:33;;;;;;;;;;;;;;;;;;5154129;27;11965;-58
2021/06/21 14:02:58;;;;;;;;;;;;;;;;;;5153891;27;13794;-58
2021/06/21 14:05:26;;;;;;;;;;;;;;;;;;5153737;27;11259;-58
2021/06/21 14:07:51;;;;;;;;;;;;;;;;;;5155278;27;12219;-58
2021/06/21 14:10:17;;;;;;;;;;;;;;;;;;5174732;27;11819;-58
2021/06/21 14:12:43;;;;;;;;;;;;;;;;;;5156952;27;11496;-57
2021/06/21 14:15:09;;;;;;;;;;;;;;;;;;5173395;27;12092;-58
2021/06/21 14:17:34;;;;;;;;;;;;;;;;;;5174719;27;11402;-58
2021/06/21 14:20:00;;;;;;;;;;;;;;;;;;5174032;27;11517;-57
2021/06/21 14:22:25;;;;;;;;;;;;;;;;;;5177615;27;11326;-58
2021/06/21 14:24:51;;;;;;;;;;;;;;;;;;5174939;27;12200;-58
2021/06/21 14:27:17;;;;;;;;;;;;;;;;;;5174423;27;11348;-58
2021/06/21 14:29:43;;;;;;;;;;;;;;;;;;5174080;27;11238;-58
2021/06/21 14:32:09;;;;;;;;;;;;;;;;;;5173775;27;12586;-59
2021/06/21 14:34:34;;;;;;;;;;;;;;;;;;5173933;27;12331;-58
2021/06/21 14:37:00;;;;;;;;;;;;;;;;;;5173927;27;12671;-59
2021/06/21 14:39:26;;;;;;;;;;;;;;;;;;5172729;27;11987;-59
2021/06/21 14:41:52;;;;;;;;;;;;;;;;;;5175083;27;12678;-58
2021/06/21 14:44:18;;;;;;;;;;;;;;;;;;5170301;27;11371;-58
2021/06/21 14:46:44;;;;;;;;;;;;;;;;;;5146043;27;11252;-59
2021/06/21 14:49:10;;;;;;;;;;;;;;;;;;5158606;27;11268;-57
2021/06/21 14:51:36;;;;;;;;;;;;;;;;;;5158205;27;11603;-58
2021/06/21 14:54:02;;;;;;;;;;;;;;;;;;5157970;27;12054;-59
2021/06/21 14:56:28;;;;;;;;;;;;;;;;;;5158109;27;11314;-58
2021/06/21 14:58:53;;;;;;;;;;;;;;;;;;5154086;27;11558;-59
2021/06/21 15:01:20;;;;;;;;;;;;;;;;;;5155849;27;12616;-58
2021/06/21 15:03:45;;;;;;;;;;;;;;;;;;5156774;27;11521;-59
2021/06/21 15:06:11;;;;;;;;;;;;;;;;;;5156978;27;11832;-58
2021/06/21 15:08:36;;;;;;;;;;;;;;;;;;5155463;27;11919;-59
2021/06/21 15:11:02;;;;;;;;;;;;;;;;;;5156876;27;12636;-60
2021/06/21 15:13:28;;;;;;;;;;;;;;;;;;5157027;27;12095;-60
2021/06/21 15:15:54;;;;;;;;;;;;;;;;;;5155622;27;11261;-60
2021/06/21 15:18:19;;;;;;;;;;;;;;;;;;5154464;27;11237;-59
2021/06/21 15:20:45;;;;;;;;;;;;;;;;;;5156776;27;12943;-60
2021/06/21 15:23:11;;;;;;;;;;;;;;;;;;5157640;27;11283;-59
2021/06/21 15:25:37;;;;;;;;;;;;;;;;;;5158529;27;11233;-59
2021/06/21 15:28:02;;;;;;;;;;;;;;;;;;5156763;27;11485;-60
2021/06/21 15:30:28;;;;;;;;;;;;;;;;;;5157940;27;12716;-59
2021/06/21 15:32:54;;;;;;;;;;;;;;;;;;5155080;27;11555;-59
2021/06/21 15:35:20;;;;;;;;;;;;;;;;;;5157911;27;12112;-58
2021/06/21 15:37:45;;;;;;;;;;;;;;;;;;5158757;27;11253;-59
2021/06/21 15:40:11;;;;;;;;;;;;;;;;;;5159105;27;12758;-59
2021/06/21 15:42:37;;;;;;;;;;;;;;;;;;5159475;27;11379;-59
2021/06/21 15:45:03;;;;;;;;;;;;;;;;;;5159293;27;11778;-59
2021/06/21 15:47:28;;;;;;;;;;;;;;;;;;5158696;27;11249;-60
2021/06/21 15:49:54;;;;;;;;;;;;;;;;;;5159019;27;12588;-60
2021/06/21 15:52:19;;;;;;;;;;;;;;;;;;5158278;27;12110;-59
2021/06/21 15:54:45;;;;;;;;;;;;;;;;;;5158833;27;12303;-58
2021/06/21 15:57:11;;;;;;;;;;;;;;;;;;5159223;27;11603;-60
2021/06/21 15:59:36;;;;;;;;;;;;;;;;;;5158452;27;12621;-61
2021/06/21 16:02:03;;;;;;;;;;;;;;;;;;5158829;27;11885;-64
2021/06/21 16:04:28;;;;;;;;;;;;;;;;;;5158630;27;11581;-62
2021/06/21 16:06:54;;;;;;;;;;;;;;;;;;5158442;27;12036;-61
2021/06/21 16:09:19;;;;;;;;;;;;;;;;;;5158675;27;12574;-61
2021/06/21 16:11:45;;;;;;;;;;;;;;;;;;5161723;27;12112;-59
2021/06/21 16:14:11;;;;;;;;;;;;;;;;;;5162212;27;11966;-59
2021/06/21 16:16:36;;;;;;;;;;;;;;;;;;5161075;27;11858;-60
2021/06/21 16:19:07;;;;;;;;;;;;;;;;;;5160615;27;12637;-61
2021/06/21 16:21:33;;;;;;;;;;;;;;;;;;5155687;27;12238;-58
2021/06/21 16:24:00;;;;;;;;;;;;;;;;;;5140952;27;11244;-58
2021/06/21 16:26:26;;;;;;;;;;;;;;;;;;5159673;27;11264;-57
2021/06/21 16:28:52;;;;;;;;;;;;;;;;;;5158991;27;12713;-58
2021/06/21 16:31:17;;;;;;;;;;;;;;;;;;5139242;27;11541;-60
2021/06/21 16:33:43;;;;;;;;;;;;;;;;;;5157776;27;12013;-58
2021/06/21 16:36:09;;;;;;;;;;;;;;;;;;5157252;27;12138;-59
2021/06/21 16:38:36;;;;;;;;;;;;;;;;;;5157917;27;11674;-59
2021/06/21 16:41:02;;;;;;;;;;;;;;;;;;5157121;27;12299;-60
2021/06/21 16:43:28;;;;;;;;;;;;;;;;;;5158362;27;12042;-59
2021/06/21 16:45:54;;;;;;;;;;;;;;;;;;5158279;27;11581;-62
2021/06/21 16:48:20;;;;;;;;;;;;;;;;;;5158596;27;11502;-61
2021/06/21 16:50:47;;;;;;;;;;;;;;;;;;5162269;27;12095;-60
2021/06/21 16:53:12;;;;;;;;;;;;;;;;;;5161442;27;11512;-58
2021/06/21 16:55:42;;;;;;;;;;;;;;;;;;5159117;27;11926;-59
2021/06/21 16:58:07;;;;;;;;;;;;;;;;;;5157470;27;11620;-59
2021/06/21 17:00:33;;;;;;;;;;;;;;;;;;5158083;27;11998;-60
2021/06/21 17:02:59;;;;;;;;;;;;;;;;;;5157227;27;11857;-59
2021/06/21 17:05:25;;;;;;;;;;;;;;;;;;5157562;27;12029;-59
2021/06/21 17:07:51;;;;;;;;;;;;;;;;;;5155779;27;12795;-59
2021/06/21 17:10:16;;;;;;;;;;;;;;;;;;5156817;27;11213;-59
2021/06/21 17:12:42;;;;;;;;;;;;;;;;;;5157829;27;11474;-59
2021/06/21 17:15:08;;;;;;;;;;;;;;;;;;5157476;27;11956;-59
2021/06/21 17:17:33;;;;;;;;;;;;;;;;;;5157526;27;11519;-59
2021/06/21 17:19:59;;;;;;;;;;;;;;;;;;5157206;27;11355;-59
2021/06/21 17:22:25;;;;;;;;;;;;;;;;;;5156624;27;12005;-60
2021/06/21 17:24:51;;;;;;;;;;;;;;;;;;5159856;27;11310;-58
2021/06/21 17:27:16;;;;;;;;;;;;;;;;;;5156994;27;12890;-60
2021/06/21 17:29:42;;;;;;;;;;;;;;;;;;5157728;27;12060;-59
2021/06/21 17:32:08;;;;;;;;;;;;;;;;;;5157538;27;11269;-59
2021/06/21 17:34:33;;;;;;;;;;;;;;;;;;5157860;27;12106;-61
2021/06/21 17:36:59;;;;;;;;;;;;;;;;;;5157194;27;12550;-61
2021/06/21 17:39:25;;;;;;;;;;;;;;;;;;5156029;27;11341;-60
2021/06/21 17:41:54;;;;;;;;;;;;;;;;;;5157449;27;12355;-61
2021/06/21 17:44:19;;;;;;;;;;;;;;;;;;5155882;27;12111;-59
2021/06/21 17:46:45;;;;;;;;;;;;;;;;;;5157477;27;12572;-60
2021/06/21 17:49:11;;;;;;;;;;;;;;;;;;5157137;27;12083;-61
2021/06/21 17:51:37;;;;;;;;;;;;;;;;;;5157269;27;11191;-63
2021/06/21 17:54:02;;;;;;;;;;;;;;;;;;5157191;27;11221;-62
2021/06/21 17:56:28;;;;;;;;;;;;;;;;;;5157053;27;12582;-62
2021/06/21 17:58:53;;;;;;;;;;;;;;;;;;5157531;27;12342;-62
2021/06/21 18:01:21;;;;;;;;;;;;;;;;;;5157255;27;11334;-62
2021/06/21 18:03:47;;;;;;;;;;;;;;;;;;5156968;27;11978;-62
2021/06/21 18:06:13;;;;;;;;;;;;;;;;;;5156977;27;11713;-62
2021/06/21 18:08:38;;;;;;;;;;;;;;;;;;5156194;27;12073;-61
2021/06/21 18:11:04;;;;;;;;;;;;;;;;;;5157124;27;11957;-62
2021/06/21 18:13:29;;;;;;;;;;;;;;;;;;5157196;27;11271;-60
2021/06/21 18:15:58;;;;;;;;;;;;;;;;;;5157315;27;12581;-60
2021/06/21 18:18:24;;;;;;;;;;;;;;;;;;5156362;27;12164;-60
2021/06/21 18:20:50;;;;;;;;;;;;;;;;;;5157305;27;12079;-62
2021/06/21 18:23:15;;;;;;;;;;;;;;;;;;5160435;27;12385;-61
2021/06/21 18:25:41;;;;;;;;;;;;;;;;;;5160442;27;12772;-61
2021/06/21 18:28:07;;;;;;;;;;;;;;;;;;5160421;27;11715;-61
2021/06/21 18:30:33;;;;;;;;;;;;;;;;;;5142077;27;12192;-62
2021/06/21 18:32:58;;;;;;;;;;;;;;;;;;5159522;27;11621;-61
2021/06/21 18:35:24;;;;;;;;;;;;;;;;;;5141390;27;13134;-61
2021/06/21 18:37:49;;;;;;;;;;;;;;;;;;5160166;27;12219;-61
2021/06/21 18:40:16;;;;;;;;;;;;;;;;;;5160405;27;11322;-60
2021/06/21 18:42:41;;;;;;;;;;;;;;;;;;5160372;27;11348;-59
2021/06/21 18:45:07;;;;;;;;;;;;;;;;;;5141430;27;13463;-59
2021/06/21 18:47:33;;;;;;;;;;;;;;;;;;5159976;27;12065;-59
2021/06/21 18:49:59;;;;;;;;;;;;;;;;;;5159416;27;12322;-60
2021/06/21 18:52:24;;;;;;;;;;;;;;;;;;5159867;27;11521;-60
2021/06/21 18:54:50;;;;;;;;;;;;;;;;;;5159299;27;12596;-60
2021/06/21 18:57:17;;;;;;;;;;;;;;;;;;5159438;27;12056;-60
2021/06/21 18:59:45;;;;;;;;;;;;;;;;;;5160501;27;11882;-60
2021/06/21 19:02:10;;;;;;;;;;;;;;;;;;5160409;27;11489;-60
2021/06/21 19:04:36;;;;;;;;;;;;;;;;;;5160190;27;12604;-59
2021/06/21 19:07:05;;;;;;;;;;;;;;;;;;5160165;27;12068;-60
2021/06/21 19:09:30;;;;;;;;;;;;;;;;;;5160342;27;12180;-58
2021/06/21 19:11:56;;;;;;;;;;;;;;;;;;5160527;27;11569;-58
2021/06/21 19:14:21;;;;;;;;;;;;;;;;;;5160225;27;12560;-57
2021/06/21 19:16:48;;;;;;;;;;;;;;;;;;5159910;27;12168;-59
2021/06/21 19:19:13;;;;;;;;;;;;;;;;;;5160613;27;11393;-59
2021/06/21 19:21:39;;;;;;;;;;;;;;;;;;5160205;27;11328;-60
2021/06/21 19:24:04;;;;;;;;;;;;;;;;;;5160263;27;12666;-60
2021/06/21 19:26:30;;;;;;;;;;;;;;;;;;5160138;27;12093;-60
2021/06/21 19:28:56;;;;;;;;;;;;;;;;;;5160142;27;11839;-60
2021/06/21 19:31:22;;;;;;;;;;;;;;;;;;5159884;27;12125;-60
2021/06/21 19:33:51;;;;;;;;;;;;;;;;;;5159754;27;12584;-60
2021/06/21 19:36:17;;;;;;;;;;;;;;;;;;5140737;27;12619;-60
2021/06/21 19:38:43;;;;;;;;;;;;;;;;;;5159268;27;11278;-60
2021/06/21 19:41:09;;;;;;;;;;;;;;;;;;5157383;27;11749;-59
2021/06/21 19:43:35;;;;;;;;;;;;;;;;;;5159550;27;12917;-61
2021/06/21 19:46:01;;;;;;;;;;;;;;;;;;5159545;27;12431;-62
2021/06/21 19:48:30;;;;;;;;;;;;;;;;;;5159707;27;12017;-59
2021/06/21 19:50:56;;;;;;;;;;;;;;;;;;5159817;27;11247;-60
2021/06/21 19:53:21;;;;;;;;;;;;;;;;;;5159517;27;12012;-60
2021/06/21 19:55:54;;;;;;;;;;;;;;;;;;5159602;27;12140;-59
2021/06/21 19:58:20;;;;;;;;;;;;;;;;;;5159506;27;11607;-60
2021/06/21 20:00:46;;;;;;;;;;;;;;;;;;5159765;27;12199;-60
2021/06/21 20:03:11;;;;;;;;;;;;;;;;;;5159457;27;11628;-58
2021/06/21 20:05:37;;;;;;;;;;;;;;;;;;5159471;27;12132;-59
2021/06/21 20:08:03;;;;;;;;;;;;;;;;;;5158945;27;11559;-59
2021/06/21 20:10:29;;;;;;;;;;;;;;;;;;5137964;27;12025;-58
2021/06/21 21:14:45;;;;;;;;;;;;;;;;;;5131540;27;11907;-59
2021/06/21 21:17:10;;;;;;;;;;;;;;;;;;5124749;27;11618;-59
2021/06/21 21:19:36;;;;;;;;;;;;;;;;;;5134717;27;11950;-60
2021/06/21 21:22:03;;;;;;;;;;;;;;;;;;5136028;27;12654;-60
2021/06/21 21:24:29;;;;;;;;;;;;;;;;;;5136104;27;12226;-59
2021/06/21 21:26:55;;;;;;;;;;;;;;;;;;5135379;27;12389;-59
2021/06/21 21:29:20;;;;;;;;;;;;;;;;;;5135820;27;11263;-60
2021/06/21 21:31:48;;;;;;;;;;;;;;;;;;5136819;27;13124;-59
2021/06/21 21:34:14;;;;;;;;;;;;;;;;;;5137086;27;12163;-60
2021/06/21 21:36:39;;;;;;;;;;;;;;;;;;5136790;27;11881;-60
2021/06/21 21:39:05;;;;;;;;;;;;;;;;;;5136695;27;11224;-60
2021/06/21 21:41:31;;;;;;;;;;;;;;;;;;5136898;27;13752;-61
2021/06/21 21:43:56;;;;;;;;;;;;;;;;;;5136778;27;13156;-60
2021/06/21 21:46:22;;;;;;;;;;;;;;;;;;5136918;27;11492;-61
2021/06/21 21:48:47;;;;;;;;;;;;;;;;;;5136566;27;11221;-61
2021/06/21 21:51:13;;;;;;;;;;;;;;;;;;5136031;27;12593;-61
2021/06/21 21:53:39;;;;;;;;;;;;;;;;;;5136648;27;12371;-61
2021/06/21 21:56:05;;;;;;;;;;;;;;;;;;5136274;27;11263;-63
2021/06/21 21:58:30;;;;;;;;;;;;;;;;;;5139849;27;12239;-64
2021/06/21 22:00:56;;;;;;;;;;;;;;;;;;5139915;27;12580;-61
2021/06/21 22:03:22;;;;;;;;;;;;;;;;;;5140165;27;11593;-61
2021/06/21 22:05:49;;;;;;;;;;;;;;;;;;5139922;27;11681;-63
2021/06/21 22:08:14;;;;;;;;;;;;;;;;;;5137314;27;11235;-61
2021/06/21 22:10:40;;;;;;;;;;;;;;;;;;5139881;27;11526;-60
2021/06/21 22:13:06;;;;;;;;;;;;;;;;;;5139483;27;12658;-59
2021/06/21 22:15:32;;;;;;;;;;;;;;;;;;5139854;27;11881;-61
2021/06/21 22:17:57;;;;;;;;;;;;;;;;;;5139723;27;11180;-60
2021/06/21 22:20:23;;;;;;;;;;;;;;;;;;5139980;27;12663;-58
2021/06/21 22:22:49;;;;;;;;;;;;;;;;;;5134927;27;13171;-58
2021/06/21 22:25:14;;;;;;;;;;;;;;;;;;5135715;27;11256;-58
2021/06/21 22:27:40;;;;;;;;;;;;;;;;;;5141626;27;12055;-58
2021/06/21 22:30:06;;;;;;;;;;;;;;;;;;5152028;27;12613;-59
2021/06/21 22:32:32;;;;;;;;;;;;;;;;;;5139529;27;11683;-61
2021/06/21 22:34:58;;;;;;;;;;;;;;;;;;5138786;27;11709;-58
2021/06/21 22:37:23;;;;;;;;;;;;;;;;;;5139903;27;11316;-58
2021/06/21 22:39:49;;;;;;;;;;;;;;;;;;5139950;27;12786;-60
2021/06/21 22:42:14;;;;;;;;;;;;;;;;;;5131855;27;12212;-60
2021/06/21 22:44:40;;;;;;;;;;;;;;;;;;5139341;27;11404;-60
2021/06/21 22:47:06;;;;;;;;;;;;;;;;;;5139001;27;12086;-59
2021/06/21 22:49:32;;;;;;;;;;;;;;;;;;5139680;27;11874;-59
2021/06/21 22:51:58;;;;;;;;;;;;;;;;;;5139060;27;12085;-58
2021/06/21 22:54:23;;;;;;;;;;;;;;;;;;5140006;27;11429;-58
2021/06/21 22:56:49;;;;;;;;;;;;;;;;;;5140022;27;11833;-59
2021/06/21 22:59:15;;;;;;;;;;;;;;;;;;5137006;27;12735;-60
2021/06/21 23:01:44;;;;;;;;;;;;;;;;;;5138937;27;12170;-61
2021/06/21 23:04:10;;;;;;;;;;;;;;;;;;5137517;27;11960;-60
2021/06/21 23:06:35;;;;;;;;;;;;;;;;;;5132057;27;11203;-60
2021/06/21 23:09:01;;;;;;;;;;;;;;;;;;5136402;27;12593;-62
2021/06/21 23:11:27;;;;;;;;;;;;;;;;;;5137801;27;12365;-59
2021/06/21 23:13:53;;;;;;;;;;;;;;;;;;5138971;27;11509;-59
2021/06/21 23:16:19;;;;;;;;;;;;;;;;;;5138819;27;12138;-59
2021/06/21 23:18:44;;;;;;;;;;;;;;;;;;5139763;27;12702;-59
2021/06/21 23:21:10;;;;;;;;;;;;;;;;;;5139069;27;12101;-58
2021/06/21 23:23:36;;;;;;;;;;;;;;;;;;5139185;27;11990;-60
2021/06/21 23:26:01;;;;;;;;;;;;;;;;;;5138992;27;12253;-63
2021/06/21 23:28:27;;;;;;;;;;;;;;;;;;5134781;27;13913;-60
2021/06/21 23:30:53;;;;;;;;;;;;;;;;;;5137927;27;12378;-61
2021/06/21 23:33:19;;;;;;;;;;;;;;;;;;5134573;27;11483;-62
2021/06/21 23:35:45;;;;;;;;;;;;;;;;;;5137944;27;11501;-61
2021/06/21 23:38:11;;;;;;;;;;;;;;;;;;5137382;27;11593;-62
2021/06/21 23:40:37;;;;;;;;;;;;;;;;;;5134712;27;12519;-61
2021/06/21 23:43:02;;;;;;;;;;;;;;;;;;5137527;27;12315;-63
2021/06/21 23:45:28;;;;;;;;;;;;;;;;;;5137595;27;11392;-63
2021/06/21 23:47:53;;;;;;;;;;;;;;;;;;5138659;27;12617;-62
2021/06/21 23:50:19;;;;;;;;;;;;;;;;;;5139540;27;11225;-63
2021/06/21 23:52:45;;;;;;;;;;;;;;;;;;5138898;27;12150;-63
2021/06/21 23:55:14;;;;;;;;;;;;;;;;;;5138843;27;12045;-62
2021/06/21 23:57:39;;;;;;;;;;;;;;;;;;5135568;27;13067;-63
